sensor_id;sensor_type;location;lat;lon;timestamp;pressure;altitude;pressure_sealevel;temperature;humidity
24160;BME280;62385;41.594;23.808;2023-05-29T00:00:47;95078.38;;;14.71;80.28
24160;BME280;62385;41.594;23.808;2023-05-29T00:03:12;95079.00;;;14.73;80.79
24160;BME280;62385;41.594;23.808;2023-05-29T00:05:38;95074.47;;;14.67;80.23
24160;BME280;62385;41.594;23.808;2023-05-29T00:08:04;95082.38;;;14.02;81.93
24160;BME280;62385;41.594;23.808;2023-05-29T00:10:29;95090.69;;;13.79;83.21
24160;BME280;62385;41.594;23.808;2023-05-29T00:12:57;95085.22;;;13.87;82.22
24160;BME280;62385;41.594;23.808;2023-05-29T00:15:23;95086.88;;;14.01;81.70
24160;BME280;62385;41.594;23.808;2023-05-29T00:17:49;95087.88;;;13.87;81.98
24160;BME280;62385;41.594;23.808;2023-05-29T00:20:14;95070.28;;;14.19;80.90
24160;BME280;62385;41.594;23.808;2023-05-29T00:22:40;95062.34;;;14.39;79.93
24160;BME280;62385;41.594;23.808;2023-05-29T00:25:07;95077.47;;;14.12;81.57
24160;BME280;62385;41.594;23.808;2023-05-29T00:27:34;95063.88;;;13.94;81.31
24160;BME280;62385;41.594;23.808;2023-05-29T00:30:01;95069.25;;;14.07;81.86
24160;BME280;62385;41.594;23.808;2023-05-29T00:32:28;95067.84;;;14.24;81.74
24160;BME280;62385;41.594;23.808;2023-05-29T00:34:54;95066.84;;;14.58;78.58
24160;BME280;62385;41.594;23.808;2023-05-29T00:37:21;95056.34;;;14.83;78.22
24160;BME280;62385;41.594;23.808;2023-05-29T00:39:47;95072.81;;;14.40;80.21
24160;BME280;62385;41.594;23.808;2023-05-29T00:42:13;95071.13;;;14.19;81.25
24160;BME280;62385;41.594;23.808;2023-05-29T00:44:38;95070.78;;;14.49;80.68
24160;BME280;62385;41.594;23.808;2023-05-29T00:47:05;95070.53;;;14.50;80.77
24160;BME280;62385;41.594;23.808;2023-05-29T00:49:31;95065.22;;;14.50;80.43
24160;BME280;62385;41.594;23.808;2023-05-29T00:51:58;95072.19;;;14.38;81.65
24160;BME280;62385;41.594;23.808;2023-05-29T00:54:26;95075.44;;;14.27;81.69
24160;BME280;62385;41.594;23.808;2023-05-29T00:56:54;95074.25;;;14.36;81.52
24160;BME280;62385;41.594;23.808;2023-05-29T00:59:20;95078.28;;;14.06;82.48
24160;BME280;62385;41.594;23.808;2023-05-29T01:01:49;95078.69;;;14.03;82.70
24160;BME280;62385;41.594;23.808;2023-05-29T01:04:16;95088.25;;;13.77;83.62
24160;BME280;62385;41.594;23.808;2023-05-29T01:06:43;95087.06;;;13.39;83.82
24160;BME280;62385;41.594;23.808;2023-05-29T01:09:09;95070.53;;;13.57;83.47
24160;BME280;62385;41.594;23.808;2023-05-29T01:17:04;95069.81;;;13.82;82.83
24160;BME280;62385;41.594;23.808;2023-05-29T01:20:08;95069.22;;;13.94;82.11
24160;BME280;62385;41.594;23.808;2023-05-29T01:28:57;95059.13;;;13.96;80.51
24160;BME280;62385;41.594;23.808;2023-05-29T01:31:26;95066.53;;;13.39;82.02
24160;BME280;62385;41.594;23.808;2023-05-29T01:33:55;95062.72;;;13.55;82.41
24160;BME280;62385;41.594;23.808;2023-05-29T01:36:22;95053.88;;;13.55;82.23
24160;BME280;62385;41.594;23.808;2023-05-29T01:38:50;95055.47;;;13.43;82.34
24160;BME280;62385;41.594;23.808;2023-05-29T01:41:16;95059.97;;;13.35;82.43
24160;BME280;62385;41.594;23.808;2023-05-29T01:43:44;95061.22;;;13.46;82.81
24160;BME280;62385;41.594;23.808;2023-05-29T01:46:12;95058.25;;;13.62;82.03
24160;BME280;62385;41.594;23.808;2023-05-29T01:48:43;95055.59;;;13.75;81.66
24160;BME280;62385;41.594;23.808;2023-05-29T01:51:10;95054.81;;;13.81;81.40
24160;BME280;62385;41.594;23.808;2023-05-29T01:53:40;95054.41;;;13.84;81.88
24160;BME280;62385;41.594;23.808;2023-05-29T01:56:07;95054.75;;;13.68;82.00
24160;BME280;62385;41.594;23.808;2023-05-29T01:58:38;95053.94;;;13.61;82.43
24160;BME280;62385;41.594;23.808;2023-05-29T02:01:06;95061.44;;;13.45;83.52
24160;BME280;62385;41.594;23.808;2023-05-29T02:03:33;95056.41;;;12.87;83.59
24160;BME280;62385;41.594;23.808;2023-05-29T02:06:00;95049.13;;;13.09;83.40
24160;BME280;62385;41.594;23.808;2023-05-29T02:08:25;95056.19;;;13.17;83.32
24160;BME280;62385;41.594;23.808;2023-05-29T02:10:52;95056.47;;;13.35;83.49
24160;BME280;62385;41.594;23.808;2023-05-29T02:13:18;95064.03;;;13.31;83.59
24160;BME280;62385;41.594;23.808;2023-05-29T02:15:44;95064.22;;;13.30;83.86
24160;BME280;62385;41.594;23.808;2023-05-29T02:18:11;95081.22;;;13.22;83.48
24160;BME280;62385;41.594;23.808;2023-05-29T02:20:40;95079.66;;;13.34;83.43
24160;BME280;62385;41.594;23.808;2023-05-29T02:23:08;95060.09;;;13.68;82.00
24160;BME280;62385;41.594;23.808;2023-05-29T02:25:34;95063.13;;;13.59;83.08
24160;BME280;62385;41.594;23.808;2023-05-29T02:28:01;95066.53;;;13.33;83.54
24160;BME280;62385;41.594;23.808;2023-05-29T02:30:27;95056.72;;;12.78;84.30
24160;BME280;62385;41.594;23.808;2023-05-29T02:32:53;95054.00;;;12.71;84.25
24160;BME280;62385;41.594;23.808;2023-05-29T02:35:19;95049.97;;;12.75;83.27
24160;BME280;62385;41.594;23.808;2023-05-29T02:37:50;95059.75;;;12.47;84.40
24160;BME280;62385;41.594;23.808;2023-05-29T02:40:18;95069.16;;;12.22;84.49
24160;BME280;62385;41.594;23.808;2023-05-29T02:42:44;95064.50;;;12.24;85.14
24160;BME280;62385;41.594;23.808;2023-05-29T02:45:10;95066.75;;;12.48;84.25
24160;BME280;62385;41.594;23.808;2023-05-29T02:47:36;95063.34;;;12.33;84.68
24160;BME280;62385;41.594;23.808;2023-05-29T02:50:02;95065.63;;;12.64;83.46
24160;BME280;62385;41.594;23.808;2023-05-29T02:52:31;95066.22;;;12.59;82.92
24160;BME280;62385;41.594;23.808;2023-05-29T02:54:56;95073.66;;;12.98;82.49
24160;BME280;62385;41.594;23.808;2023-05-29T02:57:24;95071.72;;;13.13;80.46
24160;BME280;62385;41.594;23.808;2023-05-29T02:59:50;95076.00;;;13.08;81.28
24160;BME280;62385;41.594;23.808;2023-05-29T03:02:20;95079.16;;;13.18;82.37
24160;BME280;62385;41.594;23.808;2023-05-29T03:04:45;95080.88;;;13.32;81.88
24160;BME280;62385;41.594;23.808;2023-05-29T03:07:12;95078.81;;;13.34;82.16
24160;BME280;62385;41.594;23.808;2023-05-29T03:09:38;95086.13;;;13.19;82.87
24160;BME280;62385;41.594;23.808;2023-05-29T03:12:04;95085.72;;;13.22;83.16
24160;BME280;62385;41.594;23.808;2023-05-29T03:14:30;95083.38;;;13.40;82.50
24160;BME280;62385;41.594;23.808;2023-05-29T03:17:06;95091.84;;;13.16;82.87
24160;BME280;62385;41.594;23.808;2023-05-29T03:19:34;95095.63;;;13.00;83.66
24160;BME280;62385;41.594;23.808;2023-05-29T03:22:00;95100.41;;;12.56;84.73
24160;BME280;62385;41.594;23.808;2023-05-29T03:24:26;95098.47;;;12.99;83.86
24160;BME280;62385;41.594;23.808;2023-05-29T03:26:52;95103.16;;;12.96;83.29
24160;BME280;62385;41.594;23.808;2023-05-29T03:29:18;95102.97;;;13.26;83.00
24160;BME280;62385;41.594;23.808;2023-05-29T03:31:44;95113.59;;;13.19;82.47
24160;BME280;62385;41.594;23.808;2023-05-29T03:34:16;95113.66;;;13.05;83.17
24160;BME280;62385;41.594;23.808;2023-05-29T03:36:47;95122.31;;;13.34;82.29
24160;BME280;62385;41.594;23.808;2023-05-29T03:39:13;95129.78;;;13.46;82.29
24160;BME280;62385;41.594;23.808;2023-05-29T03:41:39;95126.78;;;13.27;82.08
24160;BME280;62385;41.594;23.808;2023-05-29T03:44:05;95136.69;;;12.84;84.03
24160;BME280;62385;41.594;23.808;2023-05-29T03:46:31;95135.94;;;12.90;83.92
24160;BME280;62385;41.594;23.808;2023-05-29T03:48:59;95125.59;;;12.81;83.56
24160;BME280;62385;41.594;23.808;2023-05-29T03:51:25;95124.91;;;12.72;83.62
24160;BME280;62385;41.594;23.808;2023-05-29T03:53:53;95129.38;;;12.93;83.90
24160;BME280;62385;41.594;23.808;2023-05-29T03:56:18;95120.59;;;13.20;82.24
24160;BME280;62385;41.594;23.808;2023-05-29T03:58:45;95123.59;;;13.11;82.91
24160;BME280;62385;41.594;23.808;2023-05-29T04:01:11;95124.13;;;13.00;83.21
24160;BME280;62385;41.594;23.808;2023-05-29T04:03:37;95127.94;;;13.18;82.30
24160;BME280;62385;41.594;23.808;2023-05-29T04:06:03;95125.59;;;13.36;81.44
24160;BME280;62385;41.594;23.808;2023-05-29T04:08:29;95132.47;;;13.59;82.26
24160;BME280;62385;41.594;23.808;2023-05-29T04:10:55;95134.66;;;13.42;80.87
24160;BME280;62385;41.594;23.808;2023-05-29T04:13:21;95134.19;;;13.73;80.56
24160;BME280;62385;41.594;23.808;2023-05-29T04:15:47;95135.94;;;13.94;80.90
24160;BME280;62385;41.594;23.808;2023-05-29T04:18:14;95129.94;;;13.92;81.14
24160;BME280;62385;41.594;23.808;2023-05-29T04:20:40;95135.28;;;13.92;80.85
24160;BME280;62385;41.594;23.808;2023-05-29T04:23:06;95122.81;;;13.99;80.61
24160;BME280;62385;41.594;23.808;2023-05-29T04:25:33;95137.81;;;14.13;81.29
24160;BME280;62385;41.594;23.808;2023-05-29T04:28:00;95129.41;;;14.03;81.24
24160;BME280;62385;41.594;23.808;2023-05-29T04:30:27;95133.50;;;13.99;81.64
24160;BME280;62385;41.594;23.808;2023-05-29T04:32:54;95137.41;;;14.03;82.05
24160;BME280;62385;41.594;23.808;2023-05-29T04:35:21;95126.78;;;14.16;81.58
24160;BME280;62385;41.594;23.808;2023-05-29T04:37:56;95126.84;;;14.42;80.89
24160;BME280;62385;41.594;23.808;2023-05-29T04:40:27;95137.31;;;14.50;80.17
24160;BME280;62385;41.594;23.808;2023-05-29T04:42:53;95137.56;;;14.68;80.18
24160;BME280;62385;41.594;23.808;2023-05-29T04:45:20;95130.16;;;14.84;77.81
24160;BME280;62385;41.594;23.808;2023-05-29T04:47:49;95138.59;;;14.81;77.47
24160;BME280;62385;41.594;23.808;2023-05-29T04:50:16;95144.56;;;14.69;79.71
24160;BME280;62385;41.594;23.808;2023-05-29T04:52:43;95146.81;;;14.72;79.81
24160;BME280;62385;41.594;23.808;2023-05-29T04:55:11;95156.66;;;14.78;80.70
24160;BME280;62385;41.594;23.808;2023-05-29T04:57:37;95162.25;;;14.90;80.84
24160;BME280;62385;41.594;23.808;2023-05-29T05:00:05;95150.72;;;14.76;80.80
24160;BME280;62385;41.594;23.808;2023-05-29T05:02:34;95166.75;;;14.76;80.80
24160;BME280;62385;41.594;23.808;2023-05-29T05:05:01;95159.16;;;14.80;79.60
24160;BME280;62385;41.594;23.808;2023-05-29T05:07:27;95148.06;;;14.76;79.81
24160;BME280;62385;41.594;23.808;2023-05-29T05:09:52;95164.28;;;14.75;79.96
24160;BME280;62385;41.594;23.808;2023-05-29T05:12:22;95167.75;;;14.62;80.21
24160;BME280;62385;41.594;23.808;2023-05-29T05:14:48;95162.59;;;14.48;79.60
24160;BME280;62385;41.594;23.808;2023-05-29T05:17:13;95167.38;;;14.65;79.77
24160;BME280;62385;41.594;23.808;2023-05-29T05:19:40;95174.78;;;14.90;80.13
24160;BME280;62385;41.594;23.808;2023-05-29T05:22:06;95164.28;;;15.08;79.34
24160;BME280;62385;41.594;23.808;2023-05-29T05:24:32;95168.63;;;15.09;78.61
24160;BME280;62385;41.594;23.808;2023-05-29T05:26:57;95165.53;;;15.12;78.36
24160;BME280;62385;41.594;23.808;2023-05-29T05:29:23;95159.38;;;15.18;78.14
24160;BME280;62385;41.594;23.808;2023-05-29T05:31:48;95157.50;;;15.12;77.73
24160;BME280;62385;41.594;23.808;2023-05-29T05:34:16;95154.78;;;15.58;77.59
24160;BME280;62385;41.594;23.808;2023-05-29T05:36:43;95151.25;;;15.70;76.80
24160;BME280;62385;41.594;23.808;2023-05-29T05:39:12;95163.19;;;15.81;75.91
24160;BME280;62385;41.594;23.808;2023-05-29T05:41:38;95168.31;;;15.83;76.92
24160;BME280;62385;41.594;23.808;2023-05-29T05:44:04;95170.00;;;15.77;77.14
24160;BME280;62385;41.594;23.808;2023-05-29T05:46:43;95173.06;;;15.81;76.76
24160;BME280;62385;41.594;23.808;2023-05-29T05:49:10;95170.44;;;15.67;77.28
24160;BME280;62385;41.594;23.808;2023-05-29T05:51:36;95165.06;;;15.67;76.92
24160;BME280;62385;41.594;23.808;2023-05-29T05:54:02;95172.28;;;15.67;77.07
24160;BME280;62385;41.594;23.808;2023-05-29T05:56:28;95176.59;;;15.61;77.67
24160;BME280;62385;41.594;23.808;2023-05-29T05:58:54;95177.03;;;15.58;78.99
24160;BME280;62385;41.594;23.808;2023-05-29T06:01:20;95181.16;;;15.61;79.82
24160;BME280;62385;41.594;23.808;2023-05-29T06:03:48;95183.00;;;15.60;80.20
24160;BME280;62385;41.594;23.808;2023-05-29T06:06:13;95173.91;;;15.75;79.60
24160;BME280;62385;41.594;23.808;2023-05-29T06:08:41;95177.19;;;15.70;79.85
24160;BME280;62385;41.594;23.808;2023-05-29T06:11:08;95190.19;;;15.66;79.88
24160;BME280;62385;41.594;23.808;2023-05-29T06:13:36;95187.72;;;15.58;80.31
24160;BME280;62385;41.594;23.808;2023-05-29T06:16:09;95172.00;;;15.88;79.73
24160;BME280;62385;41.594;23.808;2023-05-29T06:18:35;95180.63;;;15.90;79.01
24160;BME280;62385;41.594;23.808;2023-05-29T06:21:01;95180.25;;;15.87;79.27
24160;BME280;62385;41.594;23.808;2023-05-29T06:23:28;95190.31;;;15.91;80.38
24160;BME280;62385;41.594;23.808;2023-05-29T06:25:54;95191.63;;;15.62;80.64
24160;BME280;62385;41.594;23.808;2023-05-29T06:28:20;95194.69;;;15.79;79.88
24160;BME280;62385;41.594;23.808;2023-05-29T06:30:46;95188.28;;;15.93;79.93
24160;BME280;62385;41.594;23.808;2023-05-29T06:33:12;95190.91;;;16.00;80.29
24160;BME280;62385;41.594;23.808;2023-05-29T06:35:39;95201.19;;;16.09;80.45
24160;BME280;62385;41.594;23.808;2023-05-29T06:38:05;95199.72;;;16.13;79.78
24160;BME280;62385;41.594;23.808;2023-05-29T06:40:31;95199.69;;;16.20;78.69
24160;BME280;62385;41.594;23.808;2023-05-29T06:42:57;95188.78;;;16.15;78.59
24160;BME280;62385;41.594;23.808;2023-05-29T06:45:36;95193.28;;;16.28;77.49
24160;BME280;62385;41.594;23.808;2023-05-29T06:48:01;95190.34;;;16.42;77.15
24160;BME280;62385;41.594;23.808;2023-05-29T06:50:27;95187.41;;;16.88;75.58
24160;BME280;62385;41.594;23.808;2023-05-29T06:52:54;95183.75;;;17.07;75.52
24160;BME280;62385;41.594;23.808;2023-05-29T06:55:20;95186.41;;;17.14;75.74
24160;BME280;62385;41.594;23.808;2023-05-29T06:57:45;95186.13;;;17.22;75.78
24160;BME280;62385;41.594;23.808;2023-05-29T07:00:12;95196.31;;;17.38;75.23
24160;BME280;62385;41.594;23.808;2023-05-29T07:02:44;95187.44;;;17.63;73.20
24160;BME280;62385;41.594;23.808;2023-05-29T07:05:10;95193.41;;;17.65;74.39
24160;BME280;62385;41.594;23.808;2023-05-29T07:07:36;95197.44;;;17.49;76.14
24160;BME280;62385;41.594;23.808;2023-05-29T07:10:03;95193.84;;;17.62;75.92
24160;BME280;62385;41.594;23.808;2023-05-29T07:12:29;95181.97;;;17.01;76.65
24160;BME280;62385;41.594;23.808;2023-05-29T07:14:55;95195.03;;;16.91;76.89
24160;BME280;62385;41.594;23.808;2023-05-29T07:17:21;95201.16;;;17.23;76.44
24160;BME280;62385;41.594;23.808;2023-05-29T07:19:55;95200.69;;;17.58;75.75
24160;BME280;62385;41.594;23.808;2023-05-29T07:22:21;95188.81;;;17.90;73.74
24160;BME280;62385;41.594;23.808;2023-05-29T07:24:47;95189.66;;;18.09;73.34
24160;BME280;62385;41.594;23.808;2023-05-29T07:27:13;95179.19;;;18.19;71.23
24160;BME280;62385;41.594;23.808;2023-05-29T07:29:38;95177.00;;;18.45;71.05
24160;BME280;62385;41.594;23.808;2023-05-29T07:32:05;95182.13;;;18.95;70.17
24160;BME280;62385;41.594;23.808;2023-05-29T07:34:31;95180.75;;;18.74;69.77
24160;BME280;62385;41.594;23.808;2023-05-29T07:37:05;95182.00;;;18.06;71.17
24160;BME280;62385;41.594;23.808;2023-05-29T07:39:34;95180.81;;;18.02;71.22
24160;BME280;62385;41.594;23.808;2023-05-29T07:42:07;95185.50;;;18.61;69.84
24160;BME280;62385;41.594;23.808;2023-05-29T07:44:34;95188.47;;;18.71;71.06
24160;BME280;62385;41.594;23.808;2023-05-29T07:46:59;95192.03;;;18.83;68.02
24160;BME280;62385;41.594;23.808;2023-05-29T07:49:42;95192.31;;;19.05;68.27
24160;BME280;62385;41.594;23.808;2023-05-29T07:52:09;95189.91;;;19.26;68.12
24160;BME280;62385;41.594;23.808;2023-05-29T07:54:34;95191.25;;;19.47;66.33
24160;BME280;62385;41.594;23.808;2023-05-29T07:57:01;95187.19;;;19.26;63.44
24160;BME280;62385;41.594;23.808;2023-05-29T07:59:42;95190.81;;;19.09;64.77
24160;BME280;62385;41.594;23.808;2023-05-29T08:02:09;95187.88;;;19.75;63.66
24160;BME280;62385;41.594;23.808;2023-05-29T08:04:55;95176.34;;;20.14;62.49
24160;BME280;62385;41.594;23.808;2023-05-29T08:07:23;95177.75;;;20.05;66.51
24160;BME280;62385;41.594;23.808;2023-05-29T08:09:48;95180.25;;;19.72;68.16
24160;BME280;62385;41.594;23.808;2023-05-29T08:12:15;95174.88;;;19.49;69.84
24160;BME280;62385;41.594;23.808;2023-05-29T08:14:41;95184.28;;;19.28;68.92
24160;BME280;62385;41.594;23.808;2023-05-29T08:17:08;95171.69;;;19.87;68.50
24160;BME280;62385;41.594;23.808;2023-05-29T08:19:34;95173.44;;;19.93;67.66
24160;BME280;62385;41.594;23.808;2023-05-29T08:22:00;95175.47;;;19.62;68.61
24160;BME280;62385;41.594;23.808;2023-05-29T08:24:26;95179.06;;;19.68;68.03
24160;BME280;62385;41.594;23.808;2023-05-29T08:26:54;95175.09;;;19.94;66.62
24160;BME280;62385;41.594;23.808;2023-05-29T08:29:19;95174.50;;;20.03;66.85
24160;BME280;62385;41.594;23.808;2023-05-29T08:31:46;95171.19;;;20.01;66.81
24160;BME280;62385;41.594;23.808;2023-05-29T08:34:11;95173.22;;;19.94;68.72
24160;BME280;62385;41.594;23.808;2023-05-29T08:36:38;95177.09;;;19.75;69.68
24160;BME280;62385;41.594;23.808;2023-05-29T08:39:06;95173.22;;;19.94;68.06
24160;BME280;62385;41.594;23.808;2023-05-29T08:43:59;95161.44;;;20.35;66.15
24160;BME280;62385;41.594;23.808;2023-05-29T08:46:30;95179.59;;;20.40;66.66
24160;BME280;62385;41.594;23.808;2023-05-29T08:48:58;95176.31;;;20.26;66.66
24160;BME280;62385;41.594;23.808;2023-05-29T08:51:26;95173.28;;;20.62;64.13
24160;BME280;62385;41.594;23.808;2023-05-29T08:53:55;95172.75;;;21.05;63.80
24160;BME280;62385;41.594;23.808;2023-05-29T08:56:21;95174.03;;;21.48;62.01
24160;BME280;62385;41.594;23.808;2023-05-29T08:58:48;95169.34;;;20.82;64.65
24160;BME280;62385;41.594;23.808;2023-05-29T09:01:14;95172.66;;;20.44;65.28
24160;BME280;62385;41.594;23.808;2023-05-29T09:03:40;95174.09;;;20.35;65.65
24160;BME280;62385;41.594;23.808;2023-05-29T09:06:07;95170.47;;;20.69;67.02
24160;BME280;62385;41.594;23.808;2023-05-29T09:08:34;95172.34;;;20.17;67.42
24160;BME280;62385;41.594;23.808;2023-05-29T09:11:00;95170.63;;;19.99;68.80
24160;BME280;62385;41.594;23.808;2023-05-29T09:13:25;95174.44;;;20.26;66.59
24160;BME280;62385;41.594;23.808;2023-05-29T09:15:59;95172.66;;;20.44;64.26
24160;BME280;62385;41.594;23.808;2023-05-29T09:18:30;95178.59;;;20.29;64.93
24160;BME280;62385;41.594;23.808;2023-05-29T09:20:57;95175.38;;;19.27;68.49
24160;BME280;62385;41.594;23.808;2023-05-29T09:23:24;95181.03;;;19.38;66.34
24160;BME280;62385;41.594;23.808;2023-05-29T09:25:52;95180.97;;;19.79;65.02
24160;BME280;62385;41.594;23.808;2023-05-29T09:28:18;95168.88;;;19.93;62.73
24160;BME280;62385;41.594;23.808;2023-05-29T09:30:46;95175.88;;;20.06;62.50
24160;BME280;62385;41.594;23.808;2023-05-29T09:33:13;95171.19;;;20.24;61.00
24160;BME280;62385;41.594;23.808;2023-05-29T09:35:42;95156.38;;;20.39;64.13
24160;BME280;62385;41.594;23.808;2023-05-29T09:38:10;95163.06;;;20.36;65.00
24160;BME280;62385;41.594;23.808;2023-05-29T09:40:38;95153.19;;;20.42;65.77
24160;BME280;62385;41.594;23.808;2023-05-29T09:45:40;95147.06;;;21.03;61.70
24160;BME280;62385;41.594;23.808;2023-05-29T09:50:39;95148.09;;;21.30;59.93
24160;BME280;62385;41.594;23.808;2023-05-29T09:53:19;95149.22;;;21.34;61.21
24160;BME280;62385;41.594;23.808;2023-05-29T09:55:49;95136.72;;;21.83;57.22
24160;BME280;62385;41.594;23.808;2023-05-29T09:58:17;95132.66;;;21.97;58.08
24160;BME280;62385;41.594;23.808;2023-05-29T10:00:44;95131.53;;;21.60;61.82
24160;BME280;62385;41.594;23.808;2023-05-29T10:03:10;95135.69;;;22.23;55.48
24160;BME280;62385;41.594;23.808;2023-05-29T10:05:38;95122.56;;;22.36;54.85
24160;BME280;62385;41.594;23.808;2023-05-29T10:08:08;95128.78;;;22.59;52.38
24160;BME280;62385;41.594;23.808;2023-05-29T10:10:34;95128.06;;;22.41;53.04
24160;BME280;62385;41.594;23.808;2023-05-29T10:13:01;95119.88;;;22.36;52.90
24160;BME280;62385;41.594;23.808;2023-05-29T10:15:30;95122.22;;;22.28;51.86
24160;BME280;62385;41.594;23.808;2023-05-29T10:18:06;95121.16;;;23.04;52.86
24160;BME280;62385;41.594;23.808;2023-05-29T10:20:35;95116.91;;;23.13;51.19
24160;BME280;62385;41.594;23.808;2023-05-29T10:23:03;95120.97;;;22.84;51.55
24160;BME280;62385;41.594;23.808;2023-05-29T10:25:32;95114.78;;;21.96;52.59
24160;BME280;62385;41.594;23.808;2023-05-29T10:27:59;95121.84;;;21.97;53.06
24160;BME280;62385;41.594;23.808;2023-05-29T10:30:45;95113.31;;;21.89;53.08
24160;BME280;62385;41.594;23.808;2023-05-29T10:36:12;95110.50;;;21.45;53.15
24160;BME280;62385;41.594;23.808;2023-05-29T10:38:47;95109.09;;;20.93;55.35
24160;BME280;62385;41.594;23.808;2023-05-29T10:43:55;95120.53;;;21.00;55.43
24160;BME280;62385;41.594;23.808;2023-05-29T10:46:21;95111.13;;;20.69;53.98
24160;BME280;62385;41.594;23.808;2023-05-29T10:48:53;95113.09;;;20.73;55.61
24160;BME280;62385;41.594;23.808;2023-05-29T10:51:26;95098.63;;;20.96;54.96
24160;BME280;62385;41.594;23.808;2023-05-29T10:53:53;95104.75;;;21.37;55.31
24160;BME280;62385;41.594;23.808;2023-05-29T10:56:23;95107.44;;;20.92;55.78
24160;BME280;62385;41.594;23.808;2023-05-29T10:58:54;95101.53;;;21.23;55.59
24160;BME280;62385;41.594;23.808;2023-05-29T11:01:22;95095.09;;;21.24;55.15
24160;BME280;62385;41.594;23.808;2023-05-29T11:03:48;95085.16;;;21.30;54.60
24160;BME280;62385;41.594;23.808;2023-05-29T11:06:20;95065.66;;;21.61;53.37
24160;BME280;62385;41.594;23.808;2023-05-29T11:08:53;95079.97;;;22.00;53.00
24160;BME280;62385;41.594;23.808;2023-05-29T11:13:57;95064.72;;;22.16;51.76
24160;BME280;62385;41.594;23.808;2023-05-29T11:18:54;95061.38;;;22.57;52.70
24160;BME280;62385;41.594;23.808;2023-05-29T11:24:03;95060.44;;;22.41;50.92
24160;BME280;62385;41.594;23.808;2023-05-29T11:26:29;95049.00;;;22.88;50.98
24160;BME280;62385;41.594;23.808;2023-05-29T11:29:13;95046.44;;;22.49;51.03
24160;BME280;62385;41.594;23.808;2023-05-29T11:31:40;95039.22;;;22.06;51.63
24160;BME280;62385;41.594;23.808;2023-05-29T11:34:09;95040.06;;;22.07;50.94
24160;BME280;62385;41.594;23.808;2023-05-29T11:36:36;95046.94;;;22.20;50.95
24160;BME280;62385;41.594;23.808;2023-05-29T11:39:04;95043.69;;;22.18;48.02
24160;BME280;62385;41.594;23.808;2023-05-29T11:41:30;95042.75;;;23.51;47.72
24160;BME280;62385;41.594;23.808;2023-05-29T11:44:00;95041.97;;;23.61;47.75
24160;BME280;62385;41.594;23.808;2023-05-29T11:46:31;95028.75;;;23.32;46.38
24160;BME280;62385;41.594;23.808;2023-05-29T11:48:59;95045.00;;;23.32;45.91
24160;BME280;62385;41.594;23.808;2023-05-29T11:51:26;95039.25;;;23.61;45.09
24160;BME280;62385;41.594;23.808;2023-05-29T11:53:53;95025.38;;;24.14;44.21
24160;BME280;62385;41.594;23.808;2023-05-29T11:56:41;95037.28;;;23.46;45.23
24160;BME280;62385;41.594;23.808;2023-05-29T11:59:10;95032.44;;;24.05;47.00
24160;BME280;62385;41.594;23.808;2023-05-29T12:01:36;95026.03;;;24.31;45.73
24160;BME280;62385;41.594;23.808;2023-05-29T12:04:13;95023.41;;;24.82;45.21
24160;BME280;62385;41.594;23.808;2023-05-29T12:06:39;95028.44;;;23.24;45.79
24160;BME280;62385;41.594;23.808;2023-05-29T12:09:05;95015.50;;;23.36;46.23
24160;BME280;62385;41.594;23.808;2023-05-29T12:11:31;95007.75;;;24.02;46.25
24160;BME280;62385;41.594;23.808;2023-05-29T12:14:01;95008.38;;;24.29;45.13
24160;BME280;62385;41.594;23.808;2023-05-29T12:16:28;95003.56;;;24.51;44.02
24160;BME280;62385;41.594;23.808;2023-05-29T12:18:54;95009.75;;;23.69;46.15
24160;BME280;62385;41.594;23.808;2023-05-29T12:21:21;95005.22;;;23.38;45.01
24160;BME280;62385;41.594;23.808;2023-05-29T12:23:48;95010.41;;;23.02;46.54
24160;BME280;62385;41.594;23.808;2023-05-29T12:26:14;95012.59;;;23.06;49.50
24160;BME280;62385;41.594;23.808;2023-05-29T12:28:44;95017.59;;;22.87;49.12
24160;BME280;62385;41.594;23.808;2023-05-29T12:31:10;94997.66;;;22.98;47.19
24160;BME280;62385;41.594;23.808;2023-05-29T12:33:42;95001.78;;;22.47;51.30
24160;BME280;62385;41.594;23.808;2023-05-29T12:36:09;95005.25;;;21.50;56.54
24160;BME280;62385;41.594;23.808;2023-05-29T12:38:48;95018.16;;;20.77;64.33
24160;BME280;62385;41.594;23.808;2023-05-29T12:41:23;95028.59;;;20.40;62.06
24160;BME280;62385;41.594;23.808;2023-05-29T12:43:49;95036.53;;;19.78;65.32
24160;BME280;62385;41.594;23.808;2023-05-29T12:46:14;95039.53;;;18.95;69.28
24160;BME280;62385;41.594;23.808;2023-05-29T12:48:41;95047.91;;;18.64;68.02
24160;BME280;62385;41.594;23.808;2023-05-29T12:51:06;95040.56;;;18.29;66.56
24160;BME280;62385;41.594;23.808;2023-05-29T12:53:33;95043.66;;;18.15;66.57
24160;BME280;62385;41.594;23.808;2023-05-29T12:55:59;95045.97;;;18.11;65.92
24160;BME280;62385;41.594;23.808;2023-05-29T12:58:24;95031.91;;;17.97;67.03
24160;BME280;62385;41.594;23.808;2023-05-29T13:00:53;95048.72;;;17.38;76.62
24160;BME280;62385;41.594;23.808;2023-05-29T13:03:21;95043.41;;;17.14;77.55
24160;BME280;62385;41.594;23.808;2023-05-29T13:05:51;95019.84;;;17.16;78.88
24160;BME280;62385;41.594;23.808;2023-05-29T13:08:17;95022.56;;;17.34;75.69
24160;BME280;62385;41.594;23.808;2023-05-29T13:10:43;95019.72;;;17.29;77.87
24160;BME280;62385;41.594;23.808;2023-05-29T13:13:09;95013.69;;;17.33;79.44
24160;BME280;62385;41.594;23.808;2023-05-29T13:15:37;95015.75;;;17.31;80.08
24160;BME280;62385;41.594;23.808;2023-05-29T13:18:05;95018.06;;;17.82;79.48
24160;BME280;62385;41.594;23.808;2023-05-29T13:20:31;95008.28;;;18.18;76.12
24160;BME280;62385;41.594;23.808;2023-05-29T13:22:57;95011.13;;;17.93;79.78
24160;BME280;62385;41.594;23.808;2023-05-29T13:25:23;95016.13;;;17.53;81.35